createdAt,value
2022-08-09T00:00:00.209Z,100628.00
2022-08-09T00:06:19.590Z,100626.00
2022-08-09T00:12:26.377Z,100614.00
2022-08-09T00:18:38.140Z,100608.00
2022-08-09T00:24:40.296Z,100612.00
2022-08-09T00:30:43.172Z,100613.00
2022-08-09T00:36:45.577Z,100618.00
2022-08-09T00:44:16.132Z,100614.00
2022-08-09T00:49:11.101Z,100609.00
2022-08-09T00:55:16.741Z,100613.00
2022-08-09T01:01:44.818Z,100612.00
2022-08-09T01:08:05.347Z,100612.00
2022-08-09T01:14:27.291Z,100610.00
2022-08-09T01:21:10.013Z,100599.00
2022-08-09T01:27:13.595Z,100604.00
2022-08-09T01:33:17.456Z,100608.00
2022-08-09T01:39:23.152Z,100595.00
2022-08-09T01:45:27.121Z,100591.00
2022-08-09T01:51:33.335Z,100598.00
2022-08-09T01:57:44.299Z,100592.00
2022-08-09T02:03:49.774Z,100597.00
2022-08-09T02:10:05.656Z,100606.00
2022-08-09T02:16:12.312Z,100598.00
2022-08-09T02:22:27.299Z,100606.00
2022-08-09T02:28:39.348Z,100602.00
2022-08-09T02:34:55.671Z,100600.00
2022-08-09T02:41:07.625Z,100599.00
2022-08-09T02:47:12.785Z,100599.00
2022-08-09T02:53:26.518Z,100606.00
2022-08-09T02:59:36.414Z,100602.00
2022-08-09T03:05:40.316Z,100604.00
2022-08-09T03:12:06.396Z,100612.00
2022-08-09T03:18:09.672Z,100623.00
2022-08-09T03:24:12.926Z,100625.00
2022-08-09T03:30:36.652Z,100620.00
2022-08-09T03:36:39.439Z,100622.00
2022-08-09T03:42:42.917Z,100618.00
2022-08-09T03:48:51.815Z,100612.00
2022-08-09T03:54:56.671Z,100603.00
2022-08-09T04:00:59.697Z,100612.00
2022-08-09T04:07:04.603Z,100603.00
2022-08-09T04:13:11.587Z,100592.00
2022-08-09T04:19:15.967Z,100597.00
2022-08-09T04:25:36.856Z,100594.00
2022-08-09T04:31:46.919Z,100601.00
2022-08-09T04:37:50.263Z,100604.00
2022-08-09T04:44:05.253Z,100608.00
2022-08-09T04:50:08.866Z,100602.00
2022-08-09T04:56:12.170Z,100601.00
2022-08-09T05:02:30.638Z,100606.00
2022-08-09T05:08:35.090Z,100601.00
2022-08-09T05:14:38.127Z,100598.00
2022-08-09T05:20:43.836Z,100590.00
2022-08-09T05:26:47.821Z,100605.00
2022-08-09T05:32:50.675Z,100596.00
2022-08-09T05:38:53.353Z,100592.00
2022-08-09T05:44:56.388Z,100617.00
2022-08-09T05:51:41.547Z,100626.00
2022-08-09T05:57:20.881Z,100616.00
2022-08-09T06:03:44.016Z,100553.00
2022-08-09T06:10:02.812Z,100558.00
2022-08-09T06:16:05.535Z,100580.00
2022-08-09T06:22:15.217Z,100571.00
2022-08-09T06:28:17.845Z,100559.00
2022-08-09T06:34:23.470Z,100565.00
2022-08-09T06:40:28.652Z,100560.00
2022-08-09T06:46:40.090Z,100569.00
2022-08-09T06:52:48.532Z,100658.00
2022-08-09T07:00:50.758Z,100570.00
2022-08-09T07:05:12.997Z,100574.00
2022-08-09T07:11:17.560Z,100567.00
2022-08-09T07:17:25.731Z,100573.00
2022-08-09T07:23:46.742Z,100597.00
2022-08-09T07:30:00.785Z,100568.00
2022-08-09T07:36:03.782Z,100655.00
2022-08-09T07:42:07.927Z,100625.00
2022-08-09T07:48:25.311Z,100617.00
2022-08-09T07:54:32.592Z,100675.00
2022-08-09T08:00:36.193Z,100582.00
2022-08-09T08:06:55.902Z,100593.00
2022-08-09T08:12:58.577Z,100576.00
2022-08-09T08:19:02.823Z,100568.00
2022-08-09T08:25:13.199Z,100571.00
2022-08-09T08:31:19.403Z,100573.00
2022-08-09T08:37:21.842Z,100567.00
2022-08-09T08:43:28.096Z,100558.00
2022-08-09T08:49:46.301Z,100560.00
2022-08-09T08:55:52.351Z,100569.00
2022-08-09T09:01:57.329Z,100597.00
2022-08-09T09:08:03.110Z,100546.00
2022-08-09T09:14:15.671Z,100535.00
2022-08-09T09:20:18.135Z,100588.00
2022-08-09T09:26:26.202Z,100522.00
2022-08-09T09:32:35.192Z,100579.00
2022-08-09T09:38:57.212Z,100568.00
2022-08-09T09:45:01.478Z,100513.00
2022-08-09T09:51:07.035Z,100599.00
2022-08-09T09:58:03.292Z,100599.00
2022-08-09T10:03:43.632Z,100537.00
2022-08-09T10:09:54.809Z,100504.00
2022-08-09T10:16:54.661Z,100505.00
2022-08-09T10:22:33.048Z,100541.00
2022-08-09T10:28:37.620Z,100548.00
2022-08-09T10:34:40.729Z,100540.00
2022-08-09T10:40:50.291Z,100538.00
2022-08-09T10:46:57.689Z,100531.00
2022-08-09T10:53:21.294Z,100527.00
2022-08-09T10:59:31.103Z,100529.00
2022-08-09T11:05:33.985Z,100539.00
2022-08-09T11:11:59.997Z,100508.00
2022-08-09T11:18:04.084Z,100500.00
2022-08-09T11:24:06.486Z,100505.00
2022-08-09T11:30:32.049Z,100485.00
2022-08-09T11:36:43.379Z,100479.00
2022-08-09T11:42:52.775Z,100495.00
2022-08-09T11:48:57.430Z,100485.00
2022-08-09T11:55:34.918Z,100457.00
2022-08-09T12:02:16.359Z,100444.00
2022-08-09T12:08:21.834Z,100390.00
2022-08-09T12:14:36.910Z,100412.00
2022-08-09T12:20:44.004Z,100389.00
2022-08-09T12:29:13.570Z,100380.00
2022-08-09T12:33:20.161Z,100392.00
2022-08-09T12:39:24.054Z,100370.00
2022-08-09T12:45:34.534Z,100346.00
2022-08-09T12:52:00.917Z,100446.00
2022-08-09T12:58:24.141Z,100377.00
2022-08-09T13:04:36.294Z,100400.00
2022-08-09T13:10:52.098Z,100442.00
2022-08-09T13:17:01.119Z,100417.00
2022-08-09T13:24:06.426Z,100438.00
2022-08-09T13:29:28.664Z,100431.00
2022-08-09T13:36:41.604Z,100418.00
2022-08-09T13:42:15.404Z,100405.00
2022-08-09T13:48:18.192Z,100404.00
2022-08-09T13:54:20.361Z,100417.00
2022-08-09T14:00:29.611Z,100418.00
2022-08-09T14:06:33.238Z,100415.00
2022-08-09T14:12:37.347Z,100411.00
2022-08-09T14:18:43.401Z,100409.00
2022-08-09T14:24:54.042Z,100398.00
2022-08-09T14:30:56.718Z,100385.00
2022-08-09T14:37:06.543Z,100384.00
2022-08-09T14:43:09.822Z,100385.00
2022-08-09T14:49:19.010Z,100394.00
2022-08-09T14:55:29.169Z,100395.00
2022-08-09T15:01:34.635Z,100391.00
2022-08-09T15:07:37.083Z,100396.00
2022-08-09T15:13:56.433Z,100394.00
2022-08-09T15:20:02.789Z,100397.00
2022-08-09T15:26:09.219Z,100392.00
2022-08-09T15:32:38.998Z,100394.00
2022-08-09T15:38:41.548Z,100400.00
2022-08-09T15:44:43.891Z,100394.00
2022-08-09T15:50:48.416Z,100396.00
2022-08-09T15:56:50.962Z,100393.00
2022-08-09T16:02:56.805Z,100405.00
2022-08-09T16:09:03.236Z,100402.00
2022-08-09T16:16:04.504Z,100403.00
2022-08-09T16:21:34.808Z,100401.00
2022-08-09T16:27:38.473Z,100413.00
2022-08-09T16:33:44.268Z,100415.00
2022-08-09T16:39:54.643Z,100426.00
2022-08-09T16:46:08.207Z,100439.00
2022-08-09T16:52:13.062Z,100427.00
2022-08-09T16:58:16.795Z,100436.00
2022-08-09T17:04:26.114Z,100432.00
2022-08-09T17:10:31.092Z,100432.00
2022-08-09T17:16:38.227Z,100445.00
2022-08-09T17:22:49.915Z,100442.00
2022-08-09T17:28:52.871Z,100457.00
2022-08-09T17:35:04.401Z,100462.00
2022-08-09T17:41:14.223Z,100475.00
2022-08-09T17:47:18.769Z,100467.00
2022-08-09T17:53:26.220Z,100478.00
2022-08-09T17:59:38.010Z,100486.00
2022-08-09T18:05:43.946Z,100490.00
2022-08-09T18:12:05.802Z,100499.00
2022-08-09T18:18:08.922Z,100500.00
2022-08-09T18:24:28.426Z,100505.00
2022-08-09T18:30:42.346Z,100508.00
2022-08-09T18:36:53.494Z,100509.00
2022-08-09T18:42:55.886Z,100519.00
2022-08-09T18:49:01.939Z,100538.00
2022-08-09T18:55:05.811Z,100535.00
2022-08-09T19:01:16.040Z,100553.00
2022-08-09T19:07:18.336Z,100557.00
2022-08-09T19:13:23.632Z,100570.00
2022-08-09T19:19:43.604Z,100593.00
2022-08-09T19:26:02.427Z,100606.00
2022-08-09T19:32:08.508Z,100612.00
2022-08-09T19:38:10.715Z,100620.00
2022-08-09T19:44:12.725Z,100607.00
2022-08-09T19:50:50.538Z,100650.00
2022-08-09T19:56:42.990Z,100630.00
2022-08-09T20:04:08.276Z,100640.00
2022-08-09T20:09:45.263Z,100642.00
2022-08-09T20:16:34.221Z,100645.00
2022-08-09T20:22:00.059Z,100648.00
2022-08-09T20:28:02.811Z,100650.00
2022-08-09T20:34:06.039Z,100637.00
2022-08-09T20:40:14.871Z,100634.00
2022-08-09T20:46:42.293Z,100625.00
2022-08-09T20:52:42.445Z,100633.00
2022-08-09T20:58:47.701Z,100635.00
2022-08-09T21:05:56.169Z,100633.00
2022-08-09T21:18:22.877Z,100638.00
2022-08-09T21:24:02.412Z,100630.00
2022-08-09T21:30:05.360Z,100633.00
2022-08-09T21:36:07.875Z,100642.00
2022-08-09T21:42:13.871Z,100625.00
2022-08-09T21:48:16.939Z,100612.00
2022-08-09T21:54:19.426Z,100608.00
2022-08-09T22:00:33.394Z,100611.00
2022-08-09T22:06:35.773Z,100607.00
2022-08-09T22:12:39.355Z,100601.00
2022-08-09T22:18:54.136Z,100599.00
2022-08-09T22:26:07.584Z,100588.00
2022-08-09T22:31:19.599Z,100586.00
2022-08-09T22:37:24.404Z,100586.00
2022-08-09T22:44:00.788Z,100591.00
2022-08-09T22:49:52.596Z,100596.00
2022-08-09T22:56:31.458Z,100595.00
2022-08-09T23:02:20.241Z,100599.00
2022-08-09T23:08:41.070Z,100582.00
2022-08-09T23:14:43.416Z,100576.00
2022-08-09T23:20:46.630Z,100583.00
2022-08-09T23:26:48.723Z,100581.00
2022-08-09T23:32:50.882Z,100561.00
2022-08-09T23:38:53.222Z,100566.00
2022-08-09T23:44:55.375Z,100552.00
2022-08-09T23:50:57.575Z,100551.00
2022-08-09T23:57:00.042Z,100547.00
